createdAt,value
2018-06-29T00:03:26.343Z,1.93
2018-06-29T00:08:30.355Z,1.80
2018-06-29T00:13:34.367Z,1.40
2018-06-29T00:18:38.364Z,1.20
2018-06-29T00:23:42.353Z,1.40
2018-06-29T00:28:46.348Z,1.20
2018-06-29T00:33:50.336Z,1.10
2018-06-29T00:38:54.075Z,1.27
2018-06-29T00:43:57.949Z,1.40
2018-06-29T00:49:01.963Z,1.17
2018-06-29T00:54:05.991Z,1.33
2018-06-29T00:59:09.971Z,1.40
2018-06-29T01:04:13.957Z,1.40
2018-06-29T01:09:17.971Z,1.30
2018-06-29T01:14:22.035Z,1.67
2018-06-29T01:19:26.021Z,1.53
2018-06-29T01:24:29.781Z,1.30
2018-06-29T01:29:33.635Z,1.50
2018-06-29T01:34:37.631Z,1.67
2018-06-29T01:39:41.632Z,1.37
2018-06-29T01:44:45.672Z,1.33
2018-06-29T01:49:49.740Z,1.40
2018-06-29T01:54:53.767Z,1.40
2018-06-29T01:59:57.751Z,1.40
2018-06-29T02:05:01.760Z,1.30
2018-06-29T02:10:05.515Z,1.50
2018-06-29T02:15:09.395Z,1.33
2018-06-29T02:20:13.496Z,1.30
2018-06-29T02:25:17.510Z,1.50
2018-06-29T02:30:21.486Z,1.13
2018-06-29T02:35:25.491Z,1.57
2018-06-29T02:40:29.488Z,1.60
2018-06-29T02:45:33.485Z,1.43
2018-06-29T02:50:37.479Z,1.23
2018-06-29T02:55:41.475Z,1.50
2018-06-29T03:00:45.468Z,1.77
2018-06-29T03:05:49.455Z,1.40
2018-06-29T03:10:53.514Z,1.60
2018-06-29T03:15:57.532Z,1.60
2018-06-29T03:21:01.524Z,1.30
2018-06-29T03:26:05.516Z,1.43
2018-06-29T03:31:09.499Z,1.60
2018-06-29T03:36:13.250Z,1.60
2018-06-29T03:41:17.122Z,1.50
2018-06-29T03:46:21.147Z,1.47
2018-06-29T03:51:25.135Z,1.43
2018-06-29T03:56:29.123Z,1.40
2018-06-29T04:01:32.890Z,1.87
2018-06-29T04:06:37.499Z,1.70
2018-06-29T04:11:41.601Z,1.83
2018-06-29T04:16:45.550Z,1.80
2018-06-29T04:21:49.679Z,1.83
2018-06-29T04:26:53.740Z,1.90
2018-06-29T04:31:57.916Z,1.87
2018-06-29T04:37:01.936Z,2.33
2018-06-29T04:42:05.787Z,2.10
2018-06-29T04:47:09.844Z,1.73
2018-06-29T04:52:13.844Z,2.10
2018-06-29T04:57:17.843Z,2.40
2018-06-29T05:02:22.775Z,2.27
2018-06-29T05:07:26.781Z,2.00
2018-06-29T05:12:30.776Z,2.30
2018-06-29T05:17:34.763Z,2.30
2018-06-29T05:22:38.771Z,3.20
2018-06-29T05:27:42.760Z,2.33
2018-06-29T05:32:46.740Z,2.47
2018-06-29T05:37:50.822Z,2.50
2018-06-29T05:42:54.939Z,2.80
2018-06-29T05:47:59.124Z,2.67
2018-06-29T05:53:03.195Z,2.10
2018-06-29T05:58:08.187Z,2.30
2018-06-29T06:03:14.670Z,3.40
2018-06-29T06:08:18.680Z,2.60
2018-06-29T06:13:23.523Z,2.23
2018-06-29T06:18:27.568Z,2.33
2018-06-29T06:23:31.326Z,3.00
2018-06-29T06:28:35.196Z,2.30
2018-06-29T06:33:39.166Z,2.97
2018-06-29T06:38:43.160Z,2.67
2018-06-29T06:43:47.184Z,2.27
2018-06-29T06:48:50.931Z,2.23
2018-06-29T06:53:54.812Z,2.30
2018-06-29T06:58:59.534Z,1.97
2018-06-29T07:04:03.571Z,2.10
2018-06-29T07:09:09.508Z,2.93
2018-06-29T07:14:13.563Z,2.37
2018-06-29T07:19:17.552Z,2.37
2018-06-29T07:24:21.595Z,2.10
2018-06-29T07:29:25.560Z,2.37
2018-06-29T07:34:29.573Z,2.10
2018-06-29T07:39:34.471Z,1.80
2018-06-29T07:44:39.245Z,2.07
2018-06-29T07:49:43.267Z,1.80
2018-06-29T07:54:47.284Z,1.87
2018-06-29T07:59:51.283Z,1.53
2018-06-29T08:04:55.347Z,2.23
2018-06-29T08:09:59.379Z,1.70
2018-06-29T08:15:03.191Z,1.63
2018-06-29T08:20:07.071Z,1.80
2018-06-29T08:25:12.924Z,1.83
2018-06-29T08:30:16.832Z,2.13
2018-06-29T08:35:20.802Z,1.93
2018-06-29T08:40:24.787Z,1.87
2018-06-29T08:45:29.361Z,1.30
2018-06-29T08:50:33.233Z,2.03
2018-06-29T08:55:37.223Z,1.47
2018-06-29T09:00:41.279Z,1.50
2018-06-29T09:05:45.508Z,1.50
2018-06-29T09:10:49.531Z,1.57
2018-06-29T09:15:53.580Z,1.50
2018-06-29T09:20:57.592Z,1.63
2018-06-29T09:26:01.583Z,1.50
2018-06-29T09:31:05.659Z,1.73
2018-06-29T09:36:09.668Z,1.30
2018-06-29T09:41:13.664Z,1.50
2018-06-29T09:46:17.667Z,1.60
2018-06-29T09:51:21.668Z,1.70
2018-06-29T09:56:25.664Z,1.60
2018-06-29T10:01:30.000Z,1.43
2018-06-29T10:06:33.701Z,1.50
2018-06-29T10:11:37.755Z,1.30
2018-06-29T10:16:41.768Z,1.30
2018-06-29T10:21:45.775Z,1.20
2018-06-29T10:26:49.775Z,1.50
2018-06-29T10:31:53.784Z,1.33
2018-06-29T10:36:57.784Z,1.50
2018-06-29T10:42:01.787Z,1.43
2018-06-29T10:47:05.877Z,1.20
2018-06-29T10:52:09.861Z,1.33
2018-06-29T10:57:13.871Z,1.30
2018-06-29T11:02:17.857Z,1.20
2018-06-29T11:07:21.883Z,1.17
2018-06-29T11:12:25.856Z,1.30
2018-06-29T11:17:29.932Z,1.43
2018-06-29T11:22:33.981Z,1.50
2018-06-29T11:27:37.896Z,1.40
2018-06-29T11:32:41.880Z,1.33
2018-06-29T11:37:45.872Z,1.53
2018-06-29T11:42:49.863Z,1.50
2018-06-29T11:47:53.855Z,1.60
2018-06-29T11:52:57.861Z,1.40
2018-06-29T11:58:01.967Z,1.20
2018-06-29T12:03:05.983Z,1.60
2018-06-29T12:08:09.988Z,1.50
2018-06-29T12:13:13.984Z,1.57
2018-06-29T12:18:18.008Z,1.50
2018-06-29T12:23:23.004Z,1.30
2018-06-29T12:28:27.880Z,1.37
2018-06-29T12:33:32.656Z,1.43
2018-06-29T12:38:36.399Z,1.40
2018-06-29T12:43:40.263Z,1.67
2018-06-29T12:48:44.255Z,1.40
2018-06-29T12:53:48.259Z,1.43
2018-06-29T12:58:52.643Z,1.33
2018-06-29T13:03:56.619Z,1.63
2018-06-29T13:09:00.731Z,1.40
2018-06-29T13:14:05.003Z,1.20
2018-06-29T13:19:09.059Z,1.30
2018-06-29T13:24:13.055Z,1.10
2018-06-29T13:29:17.095Z,1.50
2018-06-29T13:34:21.119Z,1.30
2018-06-29T13:39:25.191Z,1.20
2018-06-29T13:44:29.140Z,1.07
2018-06-29T13:49:33.132Z,1.20
2018-06-29T13:54:37.128Z,1.20
2018-06-29T13:59:41.131Z,1.33
2018-06-29T14:04:45.153Z,1.30
2018-06-29T14:09:49.172Z,1.23
2018-06-29T14:14:53.182Z,1.27
2018-06-29T14:19:57.568Z,1.30
2018-06-29T14:25:01.591Z,1.50
2018-06-29T14:30:05.731Z,1.50
2018-06-29T14:35:09.871Z,1.20
2018-06-29T14:40:13.867Z,1.20
2018-06-29T14:45:17.880Z,1.50
2018-06-29T14:50:21.872Z,1.37
2018-06-29T14:55:25.982Z,1.87
2018-06-29T15:00:29.964Z,1.40
2018-06-29T15:05:34.912Z,1.20
2018-06-29T15:10:38.908Z,1.30
2018-06-29T15:15:42.982Z,1.27
2018-06-29T15:20:47.007Z,1.30
2018-06-29T15:25:51.012Z,1.77
2018-06-29T15:30:54.999Z,1.43
2018-06-29T15:35:58.742Z,1.33
2018-06-29T15:41:02.357Z,1.60
2018-06-29T15:46:06.263Z,1.40
2018-06-29T15:51:10.054Z,1.43
2018-06-29T15:56:14.182Z,1.60
2018-06-29T16:01:18.157Z,1.47
2018-06-29T16:06:22.349Z,1.60
2018-06-29T16:11:26.332Z,1.20
2018-06-29T16:16:30.323Z,1.40
2018-06-29T16:21:34.396Z,1.50
2018-06-29T16:26:38.076Z,1.33
2018-06-29T16:31:41.923Z,1.53
2018-06-29T16:36:45.914Z,1.60
2018-06-29T16:41:49.899Z,1.80
2018-06-29T16:46:53.892Z,1.73
2018-06-29T16:51:57.893Z,1.40
2018-06-29T16:57:01.912Z,1.60
2018-06-29T17:02:06.004Z,1.53
2018-06-29T17:07:10.003Z,1.50
2018-06-29T17:12:14.074Z,1.33
2018-06-29T17:17:18.077Z,1.53
2018-06-29T17:22:22.099Z,1.70
2018-06-29T17:27:26.106Z,1.47
2018-06-29T17:32:30.128Z,1.30
2018-06-29T17:37:34.095Z,1.53
2018-06-29T17:42:38.087Z,1.27
2018-06-29T17:47:42.124Z,1.60
2018-06-29T17:52:46.178Z,1.57
2018-06-29T17:57:50.139Z,1.83
2018-06-29T18:02:54.139Z,1.60
2018-06-29T18:07:58.150Z,1.20
2018-06-29T18:13:03.134Z,1.30
2018-06-29T18:18:07.994Z,1.30
2018-06-29T18:23:11.810Z,1.60
2018-06-29T18:28:15.940Z,1.70
2018-06-29T18:33:20.696Z,1.23
2018-06-29T18:38:24.727Z,1.70
2018-06-29T18:43:28.718Z,1.90
2018-06-29T18:48:32.729Z,1.90
2018-06-29T18:53:36.728Z,2.13
2018-06-29T18:58:40.723Z,2.50
2018-06-29T19:03:44.756Z,3.30
2018-06-29T19:08:49.384Z,2.97
2018-06-29T19:13:53.268Z,3.03
2018-06-29T19:18:57.043Z,3.83
2018-06-29T19:24:00.991Z,4.30
2018-06-29T19:29:05.067Z,3.80
2018-06-29T19:34:09.090Z,3.47
2018-06-29T19:39:13.258Z,3.40
2018-06-29T19:44:17.255Z,3.17
2018-06-29T19:49:21.226Z,3.33
2018-06-29T19:54:25.231Z,3.70
2018-06-29T19:59:29.264Z,3.10
2018-06-29T20:04:33.251Z,3.07
2018-06-29T20:09:37.307Z,3.10
2018-06-29T20:14:41.300Z,2.57
2018-06-29T20:19:45.659Z,3.33
2018-06-29T20:24:49.668Z,2.80
2018-06-29T20:29:53.656Z,3.13
2018-06-29T20:34:57.667Z,2.63
2018-06-29T20:40:01.667Z,2.43
2018-06-29T20:45:05.692Z,2.60
2018-06-29T20:50:09.684Z,2.90
2018-06-29T20:55:13.688Z,2.93
2018-06-29T21:00:17.693Z,2.50
2018-06-29T21:05:21.667Z,2.67
2018-06-29T21:10:25.667Z,3.00
2018-06-29T21:15:29.677Z,3.60
2018-06-29T21:20:33.679Z,3.13
2018-06-29T21:25:37.692Z,3.17
2018-06-29T21:30:41.423Z,3.37
2018-06-29T21:36:48.481Z,3.10
2018-06-29T21:41:52.547Z,3.63
2018-06-29T21:46:56.570Z,2.77
2018-06-29T21:52:00.562Z,2.90
2018-06-29T21:57:04.605Z,3.47
2018-06-29T22:02:08.619Z,3.70
2018-06-29T22:07:12.432Z,3.23
2018-06-29T22:12:16.330Z,3.60
2018-06-29T22:17:20.328Z,4.33
2018-06-29T22:22:24.334Z,3.97
2018-06-29T22:27:28.459Z,4.30
2018-06-29T22:32:32.466Z,4.03
2018-06-29T22:37:36.465Z,4.10
2018-06-29T22:42:40.475Z,3.70
2018-06-29T22:47:44.572Z,4.20
2018-06-29T22:52:48.557Z,3.93
2018-06-29T22:57:52.573Z,4.33
2018-06-29T23:02:58.447Z,4.07
2018-06-29T23:08:02.979Z,4.30
2018-06-29T23:13:06.834Z,4.47
2018-06-29T23:18:10.747Z,4.00
2018-06-29T23:23:14.764Z,4.23
2018-06-29T23:28:18.792Z,4.50
2018-06-29T23:33:22.787Z,4.13
2018-06-29T23:38:26.553Z,4.20
2018-06-29T23:43:30.428Z,4.10
2018-06-29T23:48:34.635Z,4.30
2018-06-29T23:53:38.623Z,4.30
2018-06-29T23:58:42.620Z,4.40
